createdAt,value
2023-05-03T00:01:31.183Z,101467.78
2023-05-03T00:03:58.197Z,101469.47
2023-05-03T00:06:25.767Z,101465.88
2023-05-03T00:08:53.046Z,101457.97
2023-05-03T00:11:20.134Z,101462.38
2023-05-03T00:13:47.182Z,101467.66
2023-05-03T00:16:14.505Z,101466.75
2023-05-03T00:18:41.588Z,101463.19
2023-05-03T00:21:08.610Z,101456.19
2023-05-03T00:23:35.682Z,101463.28
2023-05-03T00:26:02.842Z,101453.63
2023-05-03T00:28:29.855Z,101457.97
2023-05-03T00:30:56.933Z,101445.69
2023-05-03T00:33:23.951Z,101442.97
2023-05-03T00:35:51.032Z,101444.75
2023-05-03T00:38:18.135Z,101450.19
2023-05-03T00:40:46.338Z,101436.94
2023-05-03T00:43:13.884Z,101443.09
2023-05-03T00:45:41.341Z,101443.03
2023-05-03T00:48:08.616Z,101446.63
2023-05-03T00:50:37.207Z,101434.31
2023-05-03T00:53:04.582Z,101429.06
2023-05-03T00:55:32.237Z,101437.03
2023-05-03T00:57:59.391Z,101432.63
2023-05-03T01:00:26.542Z,101422.06
2023-05-03T01:02:54.527Z,101429.97
2023-05-03T01:05:23.083Z,101425.56
2023-05-03T01:08:09.430Z,101423.78
2023-05-03T01:10:54.746Z,101424.69
2023-05-03T01:13:39.723Z,101421.19
2023-05-03T01:16:21.431Z,101425.59
2023-05-03T01:18:51.167Z,101419.38
2023-05-03T01:21:19.413Z,101424.69
2023-05-03T01:23:52.596Z,101419.41
2023-05-03T01:26:21.990Z,101425.59
2023-05-03T01:28:49.192Z,101430.00
2023-05-03T01:31:26.755Z,101425.53
2023-05-03T01:34:18.471Z,101423.81
2023-05-03T01:36:46.201Z,101423.78
2023-05-03T01:39:21.351Z,101428.19
2023-05-03T01:41:51.935Z,101430.84
2023-05-03T01:44:21.805Z,101429.09
2023-05-03T01:46:49.868Z,101429.09
2023-05-03T01:49:16.976Z,101427.31
2023-05-03T01:51:43.966Z,101422.91
2023-05-03T01:54:11.547Z,101428.22
2023-05-03T01:56:38.622Z,101424.66
2023-05-03T01:59:05.896Z,101419.41
2023-05-03T02:01:33.676Z,101425.59
2023-05-03T02:04:01.045Z,101417.69
2023-05-03T02:06:28.263Z,101418.56
2023-05-03T02:08:59.868Z,101422.06
2023-05-03T02:11:26.901Z,101424.72
2023-05-03T02:13:53.969Z,101424.69
2023-05-03T02:16:21.616Z,101429.97
2023-05-03T02:18:48.776Z,101422.88
2023-05-03T02:21:16.365Z,101425.56
2023-05-03T02:23:43.445Z,101421.13
2023-05-03T02:26:10.645Z,101417.63
2023-05-03T02:28:38.812Z,101418.50
2023-05-03T02:31:06.613Z,101418.53
2023-05-03T02:33:33.891Z,101426.41
2023-05-03T02:36:01.034Z,101438.78
2023-05-03T02:38:28.182Z,101425.59
2023-05-03T02:40:55.261Z,101434.41
2023-05-03T02:43:23.198Z,101441.41
2023-05-03T02:45:50.284Z,101430.81
2023-05-03T02:48:17.992Z,101438.72
2023-05-03T02:50:45.091Z,101434.31
2023-05-03T02:53:12.632Z,101437.00
2023-05-03T02:55:40.647Z,101437.88
2023-05-03T02:58:07.810Z,101437.84
2023-05-03T03:00:35.427Z,101436.09
2023-05-03T03:03:02.844Z,101443.13
2023-05-03T03:05:30.252Z,101437.81
2023-05-03T03:07:57.232Z,101444.06
2023-05-03T03:10:24.585Z,101437.88
2023-05-03T03:12:51.612Z,101436.97
2023-05-03T03:15:28.107Z,101436.06
2023-05-03T03:17:58.086Z,101443.06
2023-05-03T03:20:26.059Z,101443.06
2023-05-03T03:22:54.660Z,101433.41
2023-05-03T03:25:21.968Z,101437.75
2023-05-03T03:27:49.745Z,101444.72
2023-05-03T03:30:17.192Z,101440.28
2023-05-03T03:32:56.984Z,101444.69
2023-05-03T03:35:31.233Z,101446.44
2023-05-03T03:37:58.671Z,101453.50
2023-05-03T03:40:26.055Z,101462.31
2023-05-03T03:42:55.427Z,101453.25
2023-05-03T03:45:22.629Z,101467.25
2023-05-03T03:47:51.428Z,101468.88
2023-05-03T03:50:21.474Z,101458.22
2023-05-03T03:52:48.525Z,101454.81
2023-05-03T03:55:16.072Z,101459.53
2023-05-03T03:57:46.019Z,101458.38
2023-05-03T04:00:14.881Z,101450.38
2023-05-03T04:02:49.171Z,101471.47
2023-05-03T04:05:18.618Z,101460.16
2023-05-03T04:07:46.610Z,101456.78
2023-05-03T04:10:15.617Z,101463.69
2023-05-03T04:12:43.470Z,101456.22
2023-05-03T04:15:13.439Z,101455.78
2023-05-03T04:17:41.379Z,101454.34
2023-05-03T04:20:11.642Z,101456.53
2023-05-03T04:22:41.324Z,101467.31
2023-05-03T04:25:14.346Z,101466.81
2023-05-03T04:27:45.282Z,101459.56
2023-05-03T04:30:15.272Z,101468.66
2023-05-03T04:32:44.602Z,101477.13
2023-05-03T04:35:12.983Z,101474.47
2023-05-03T04:37:44.438Z,101474.38
2023-05-03T04:40:16.516Z,101466.31
2023-05-03T04:42:48.472Z,101466.19
2023-05-03T04:45:15.993Z,101466.94
2023-05-03T04:47:43.332Z,101471.66
2023-05-03T04:50:11.383Z,101481.34
2023-05-03T04:52:41.766Z,101474.38
2023-05-03T04:55:12.567Z,101475.16
2023-05-03T04:57:40.427Z,101479.47
2023-05-03T05:00:13.126Z,101482.78
2023-05-03T05:02:45.472Z,101477.41
2023-05-03T05:05:12.924Z,101483.06
2023-05-03T05:07:39.991Z,101500.81
2023-05-03T05:10:10.315Z,101500.75
2023-05-03T05:12:38.102Z,101496.53
2023-05-03T05:15:07.142Z,101500.88
2023-05-03T05:17:35.117Z,101506.25
2023-05-03T05:20:07.346Z,101509.63
2023-05-03T05:22:34.997Z,101513.19
2023-05-03T05:25:02.256Z,101513.75
2023-05-03T05:27:30.861Z,101505.28
2023-05-03T05:29:59.462Z,101510.50
2023-05-03T05:32:27.216Z,101514.84
2023-05-03T05:34:57.783Z,101507.06
2023-05-03T05:37:27.782Z,101506.00
2023-05-03T05:39:58.693Z,101517.38
2023-05-03T05:42:28.797Z,101507.69
2023-05-03T05:44:57.475Z,101509.63
2023-05-03T05:47:25.076Z,101516.44
2023-05-03T05:49:53.651Z,101531.34
2023-05-03T05:52:20.686Z,101518.31
2023-05-03T05:54:47.781Z,101519.28
2023-05-03T05:57:14.932Z,101518.31
2023-05-03T05:59:42.404Z,101527.25
2023-05-03T06:02:16.906Z,101532.72
2023-05-03T06:04:46.920Z,101527.41
2023-05-03T06:07:15.117Z,101529.91
2023-05-03T06:09:42.913Z,101530.88
2023-05-03T06:12:11.209Z,101536.19
2023-05-03T06:14:51.683Z,101540.53
2023-05-03T06:17:29.389Z,101538.56
2023-05-03T06:19:57.982Z,101536.63
2023-05-03T06:22:25.570Z,101545.50
2023-05-03T06:24:55.566Z,101548.03
2023-05-03T06:27:22.704Z,101548.94
2023-05-03T06:29:51.563Z,101549.75
2023-05-03T06:32:19.494Z,101541.88
2023-05-03T06:34:46.738Z,101534.94
2023-05-03T06:37:14.274Z,101551.66
2023-05-03T06:39:41.726Z,101528.56
2023-05-03T06:42:08.956Z,101539.25
2023-05-03T06:44:39.120Z,101524.22
2023-05-03T06:47:06.192Z,101513.50
2023-05-03T06:49:33.367Z,101515.22
2023-05-03T06:52:00.479Z,101502.63
2023-05-03T06:54:27.667Z,101510.59
2023-05-03T06:56:54.678Z,101500.69
2023-05-03T06:59:21.702Z,101501.88
2023-05-03T07:01:48.868Z,101519.00
2023-05-03T07:04:16.190Z,101522.22
2023-05-03T07:06:55.452Z,101528.50
2023-05-03T07:09:35.446Z,101529.63
2023-05-03T07:12:09.267Z,101522.84
2023-05-03T07:14:36.468Z,101534.72
2023-05-03T07:17:03.501Z,101529.78
2023-05-03T07:19:30.674Z,101526.34
2023-05-03T07:21:57.697Z,101531.41
2023-05-03T07:24:27.340Z,101527.72
2023-05-03T07:26:54.640Z,101530.13
2023-05-03T07:29:22.043Z,101535.44
2023-05-03T07:31:50.829Z,101540.38
2023-05-03T07:34:19.169Z,101542.81
2023-05-03T07:36:46.116Z,101548.41
2023-05-03T07:39:13.127Z,101556.75
2023-05-03T07:41:40.205Z,101569.09
2023-05-03T07:44:07.904Z,101559.72
2023-05-03T07:46:35.519Z,101564.66
2023-05-03T07:49:04.749Z,101580.78
2023-05-03T07:51:39.220Z,101580.19
2023-05-03T07:54:06.460Z,101574.56
2023-05-03T07:56:46.626Z,101583.09
2023-05-03T07:59:20.371Z,101599.81
2023-05-03T08:01:47.362Z,101615.38
2023-05-03T08:04:14.443Z,101616.25
2023-05-03T08:06:42.844Z,101626.25
2023-05-03T08:09:09.876Z,101622.41
2023-05-03T08:11:37.023Z,101628.59
2023-05-03T08:14:04.085Z,101619.16
2023-05-03T08:16:31.181Z,101622.50
2023-05-03T08:18:58.305Z,101631.53
2023-05-03T08:21:26.302Z,101613.34
2023-05-03T08:23:53.431Z,101613.84
2023-05-03T08:26:22.364Z,101618.28
2023-05-03T08:28:49.818Z,101615.09
2023-05-03T08:31:17.732Z,101622.28
2023-05-03T08:33:44.798Z,101625.53
2023-05-03T08:36:11.833Z,101614.63
2023-05-03T08:38:41.522Z,101630.78
2023-05-03T08:41:30.819Z,101623.41
2023-05-03T08:43:59.607Z,101628.59
2023-05-03T08:46:28.638Z,101628.38
2023-05-03T08:48:56.229Z,101634.91
2023-05-03T08:51:25.135Z,101629.72
2023-05-03T08:53:52.490Z,101638.25
2023-05-03T08:56:40.111Z,101643.94
2023-05-03T08:59:10.391Z,101640.38
2023-05-03T09:01:41.407Z,101634.91
2023-05-03T09:04:10.296Z,101634.53
2023-05-03T09:06:38.697Z,101636.31
2023-05-03T09:09:09.903Z,101619.22
2023-05-03T09:11:38.914Z,101604.59
2023-05-03T09:14:17.494Z,101602.78
2023-05-03T09:16:46.807Z,101589.16
2023-05-03T09:19:16.598Z,101583.69
2023-05-03T09:21:45.556Z,101586.00
2023-05-03T09:24:21.127Z,101581.78
2023-05-03T09:26:50.660Z,101579.06
2023-05-03T09:29:32.254Z,101591.72
2023-05-03T09:32:05.748Z,101586.47
2023-05-03T09:34:34.198Z,101589.16
2023-05-03T09:37:01.534Z,101591.69
2023-05-03T09:39:28.636Z,101585.06
2023-05-03T09:41:56.724Z,101587.53
2023-05-03T09:44:43.148Z,101585.34
2023-05-03T09:47:11.182Z,101570.44
2023-05-03T09:49:38.841Z,101571.00
2023-05-03T09:52:07.372Z,101574.19
2023-05-03T09:54:38.341Z,101571.94
2023-05-03T09:57:07.600Z,101569.97
2023-05-03T09:59:39.829Z,101582.28
2023-05-03T10:02:08.468Z,101566.78
2023-05-03T10:04:52.093Z,101555.75
2023-05-03T10:07:22.586Z,101554.44
2023-05-03T10:09:49.708Z,101555.63
2023-05-03T10:12:18.093Z,101558.66
2023-05-03T10:14:47.556Z,101548.56
2023-05-03T10:17:42.914Z,101550.16
2023-05-03T10:20:23.182Z,101563.88
2023-05-03T10:23:05.560Z,101551.09
2023-05-03T10:25:37.184Z,101547.59
2023-05-03T10:28:06.124Z,101540.06
2023-05-03T10:30:37.024Z,101550.78
2023-05-03T10:33:10.158Z,101545.97
2023-05-03T10:35:40.968Z,101534.84
2023-05-03T10:38:21.048Z,101537.91
2023-05-03T10:40:48.592Z,101545.72
2023-05-03T10:43:33.439Z,101532.06
2023-05-03T10:46:05.108Z,101535.13
2023-05-03T10:48:33.657Z,101530.88
2023-05-03T10:51:37.320Z,101539.16
2023-05-03T10:54:04.923Z,101531.00
2023-05-03T10:56:32.078Z,101537.34
2023-05-03T10:58:59.273Z,101543.25
2023-05-03T11:01:28.232Z,101522.41
2023-05-03T11:04:01.070Z,101535.41
2023-05-03T11:06:41.385Z,101534.31
2023-05-03T11:09:12.159Z,101534.03
2023-05-03T11:11:41.603Z,101525.63
2023-05-03T11:14:10.187Z,101520.47
2023-05-03T11:16:41.252Z,101520.63
2023-05-03T11:19:08.552Z,101507.25
2023-05-03T11:21:36.555Z,101515.84
2023-05-03T11:24:03.682Z,101515.31
2023-05-03T11:26:36.231Z,101509.22
2023-05-03T11:29:03.786Z,101499.31
2023-05-03T11:31:31.990Z,101510.09
2023-05-03T11:33:59.427Z,101513.66
2023-05-03T11:36:28.086Z,101515.69
2023-05-03T11:38:55.219Z,101514.56
2023-05-03T11:41:22.371Z,101517.78
2023-05-03T11:44:00.470Z,101511.50
2023-05-03T11:46:35.788Z,101503.75
2023-05-03T11:49:03.570Z,101492.59
2023-05-03T11:51:31.507Z,101498.16
2023-05-03T11:54:13.036Z,101505.56
2023-05-03T11:56:47.920Z,101493.72
2023-05-03T11:59:15.017Z,101496.31
2023-05-03T12:01:43.211Z,101486.66
2023-05-03T12:04:13.030Z,101477.56
2023-05-03T12:06:42.438Z,101483.31
2023-05-03T12:09:15.649Z,101473.78
2023-05-03T12:11:44.914Z,101462.03
2023-05-03T12:14:12.839Z,101469.25
2023-05-03T12:16:51.816Z,101443.97
2023-05-03T12:19:28.054Z,101467.94
2023-05-03T12:22:17.838Z,101493.06
2023-05-03T12:24:49.321Z,101500.38
2023-05-03T12:27:19.311Z,101499.47
2023-05-03T12:29:47.557Z,101491.84
2023-05-03T12:32:15.211Z,101499.59
2023-05-03T12:34:43.349Z,101478.69
2023-05-03T12:37:16.752Z,101476.38
2023-05-03T12:39:47.367Z,101481.63
2023-05-03T12:42:22.015Z,101495.72
2023-05-03T12:44:50.873Z,101484.41
2023-05-03T12:47:26.954Z,101470.13
2023-05-03T12:49:59.614Z,101468.09
2023-05-03T12:54:57.196Z,101457.81
2023-05-03T12:57:24.762Z,101473.38
2023-05-03T13:00:02.248Z,101464.31
2023-05-03T13:05:01.672Z,101462.69
2023-05-03T13:07:31.047Z,101465.88
2023-05-03T13:12:31.125Z,101462.38
2023-05-03T13:14:58.277Z,101448.06
2023-05-03T13:17:25.429Z,101445.19
2023-05-03T13:19:53.328Z,101436.81
2023-05-03T13:22:20.502Z,101426.13
2023-05-03T13:24:48.195Z,101415.91
2023-05-03T13:27:16.746Z,101408.00
2023-05-03T13:29:46.152Z,101408.19
2023-05-03T13:32:14.626Z,101411.44
2023-05-03T13:34:41.603Z,101415.31
2023-05-03T13:37:08.564Z,101422.94
2023-05-03T13:39:35.609Z,101408.50
2023-05-03T13:42:03.689Z,101402.28
2023-05-03T13:44:30.794Z,101407.38
2023-05-03T13:46:57.826Z,101404.22
2023-05-03T13:49:25.693Z,101398.28
2023-05-03T13:51:52.886Z,101394.03
2023-05-03T13:54:19.996Z,101382.16
2023-05-03T13:56:48.415Z,101384.63
2023-05-03T13:59:16.484Z,101410.94
2023-05-03T14:01:43.740Z,101395.78
2023-05-03T14:04:11.105Z,101392.91
2023-05-03T14:06:40.241Z,101393.38
2023-05-03T14:09:08.162Z,101394.50
2023-05-03T14:11:35.598Z,101397.25
2023-05-03T14:14:03.368Z,101394.38
2023-05-03T14:16:40.838Z,101373.44
2023-05-03T14:19:10.801Z,101404.13
2023-05-03T14:21:38.529Z,101376.53
2023-05-03T14:24:06.842Z,101375.97
2023-05-03T14:26:37.206Z,101386.88
2023-05-03T14:29:05.899Z,101397.88
2023-05-03T14:31:34.395Z,101396.47
2023-05-03T14:34:01.527Z,101394.78
2023-05-03T14:36:36.127Z,101411.16
2023-05-03T14:39:04.452Z,101402.34
2023-05-03T14:41:33.543Z,101409.78
2023-05-03T14:44:02.232Z,101417.56
2023-05-03T14:46:29.397Z,101423.84
2023-05-03T14:48:56.384Z,101429.38
2023-05-03T14:51:24.095Z,101420.69
2023-05-03T14:53:51.498Z,101412.75
2023-05-03T14:56:18.559Z,101395.78
2023-05-03T14:58:45.627Z,101394.13
2023-05-03T15:01:22.332Z,101387.25
2023-05-03T15:03:50.018Z,101375.84
2023-05-03T15:06:24.566Z,101380.38
2023-05-03T15:08:52.469Z,101378.88
2023-05-03T15:11:19.697Z,101392.06
2023-05-03T15:13:47.982Z,101405.09
2023-05-03T15:16:15.180Z,101419.16
2023-05-03T15:18:44.076Z,101428.03
2023-05-03T15:21:12.833Z,101428.88
2023-05-03T15:23:39.899Z,101424.56
2023-05-03T15:26:07.223Z,101412.75
2023-05-03T15:28:34.224Z,101419.53
2023-05-03T15:31:01.996Z,101403.59
2023-05-03T15:33:29.121Z,101398.41
2023-05-03T15:35:56.584Z,101387.91
2023-05-03T15:38:23.720Z,101384.44
2023-05-03T15:40:50.814Z,101380.06
2023-05-03T15:43:18.017Z,101365.66
2023-05-03T15:45:45.012Z,101351.13
2023-05-03T15:48:12.081Z,101365.25
2023-05-03T15:50:39.059Z,101350.72
2023-05-03T15:53:06.051Z,101346.41
2023-05-03T15:55:33.444Z,101329.16
2023-05-03T15:58:00.411Z,101330.81
2023-05-03T16:00:27.879Z,101338.16
2023-05-03T16:02:55.042Z,101322.84
2023-05-03T16:05:23.206Z,101316.34
2023-05-03T16:07:50.974Z,101320.13
2023-05-03T16:10:18.335Z,101320.22
2023-05-03T16:12:45.391Z,101321.16
2023-05-03T16:15:12.676Z,101315.16
2023-05-03T16:17:39.741Z,101318.09
2023-05-03T16:20:10.893Z,101321.16
2023-05-03T16:22:38.141Z,101316.72
2023-05-03T16:25:10.757Z,101326.06
2023-05-03T16:27:40.207Z,101328.72
2023-05-03T16:30:08.938Z,101320.41
2023-05-03T16:32:37.066Z,101314.66
2023-05-03T16:35:04.635Z,101306.13
2023-05-03T16:37:37.268Z,101306.69
2023-05-03T16:40:13.912Z,101321.03
2023-05-03T16:42:41.678Z,101320.47
2023-05-03T16:45:10.853Z,101316.09
2023-05-03T16:47:38.619Z,101311.56
2023-05-03T16:50:09.610Z,101315.78
2023-05-03T16:52:40.530Z,101332.69
2023-05-03T16:55:09.425Z,101323.97
2023-05-03T16:57:42.734Z,101306.97
2023-05-03T17:00:11.133Z,101290.00
2023-05-03T17:02:39.980Z,101275.22
2023-05-03T17:05:12.778Z,101281.06
2023-05-03T17:07:41.966Z,101296.59
2023-05-03T17:10:09.612Z,101287.16
2023-05-03T17:12:37.132Z,101280.00
2023-05-03T17:15:04.665Z,101267.50
2023-05-03T17:17:32.783Z,101263.06
2023-05-03T17:19:59.843Z,101239.88
2023-05-03T17:22:26.933Z,101239.88
2023-05-03T17:24:55.333Z,101236.19
2023-05-03T17:27:24.360Z,101248.00
2023-05-03T17:29:51.767Z,101265.84
2023-05-03T17:32:19.115Z,101263.38
2023-05-03T17:34:46.353Z,101263.22
2023-05-03T17:37:13.376Z,101270.41
2023-05-03T17:39:40.425Z,101266.56
2023-05-03T17:42:08.574Z,101272.75
2023-05-03T17:44:35.699Z,101289.66
2023-05-03T17:47:04.654Z,101289.69
2023-05-03T17:49:34.527Z,101289.63
2023-05-03T17:52:01.542Z,101282.59
2023-05-03T17:54:29.514Z,101289.63
2023-05-03T17:56:57.140Z,101282.28
2023-05-03T17:59:24.147Z,101311.66
2023-05-03T18:01:51.127Z,101319.81
2023-05-03T18:04:18.153Z,101317.09
2023-05-03T18:06:45.743Z,101306.53
2023-05-03T18:09:13.351Z,101329.41
2023-05-03T18:11:41.498Z,101332.19
2023-05-03T18:14:08.545Z,101347.19
2023-05-03T18:16:36.881Z,101347.16
2023-05-03T18:19:04.431Z,101340.16
2023-05-03T18:21:31.491Z,101343.72
2023-05-03T18:23:58.592Z,101338.34
2023-05-03T18:26:25.553Z,101348.94
2023-05-03T18:28:53.712Z,101342.84
2023-05-03T18:31:21.639Z,101347.16
2023-05-03T18:33:49.118Z,101360.34
2023-05-03T18:36:17.648Z,101371.81
2023-05-03T18:38:47.048Z,101370.97
2023-05-03T18:41:15.202Z,101370.13
2023-05-03T18:43:43.639Z,101377.16
2023-05-03T18:46:11.515Z,101359.56
2023-05-03T18:48:38.553Z,101357.78
2023-05-03T18:51:05.836Z,101356.84
2023-05-03T18:53:34.486Z,101363.06
2023-05-03T18:56:04.959Z,101362.22
2023-05-03T18:58:32.528Z,101381.56
2023-05-03T19:01:00.527Z,101380.69
2023-05-03T19:03:31.622Z,101386.88
2023-05-03T19:06:04.256Z,101388.59
2023-05-03T19:08:31.992Z,101383.31
2023-05-03T19:11:08.272Z,101385.00
2023-05-03T19:13:36.129Z,101376.22
2023-05-03T19:16:04.095Z,101367.31
2023-05-03T19:18:32.065Z,101356.63
2023-05-03T19:20:59.142Z,101353.16
2023-05-03T19:23:26.225Z,101353.81
2023-05-03T19:25:53.501Z,101335.38
2023-05-03T19:28:20.683Z,101335.44
2023-05-03T19:30:51.623Z,101335.44
2023-05-03T19:33:22.098Z,101336.28
2023-05-03T19:35:49.234Z,101352.41
2023-05-03T19:38:16.150Z,101362.16
2023-05-03T19:40:58.674Z,101369.13
2023-05-03T19:43:25.926Z,101371.00
2023-05-03T19:45:53.151Z,101377.16
2023-05-03T19:48:20.182Z,101377.16
2023-05-03T19:50:47.744Z,101382.44
2023-05-03T19:53:14.824Z,101377.16
2023-05-03T19:55:41.960Z,101364.72
2023-05-03T19:58:08.957Z,101364.66
2023-05-03T20:00:35.953Z,101370.69
2023-05-03T20:03:02.986Z,101377.81
2023-05-03T20:05:30.249Z,101372.66
2023-05-03T20:07:57.208Z,101373.34
2023-05-03T20:10:24.193Z,101369.78
2023-05-03T20:12:51.199Z,101361.00
2023-05-03T20:15:18.245Z,101354.13
2023-05-03T20:17:45.232Z,101366.53
2023-05-03T20:20:13.260Z,101349.81
2023-05-03T20:22:40.891Z,101348.75
2023-05-03T20:25:08.500Z,101354.97
2023-05-03T20:27:35.498Z,101353.28
2023-05-03T20:30:06.005Z,101366.25
2023-05-03T20:32:36.371Z,101378.56
2023-05-03T20:35:13.561Z,101394.63
2023-05-03T20:37:40.581Z,101407.00
2023-05-03T20:40:09.465Z,101405.97
2023-05-03T20:42:36.693Z,101404.22
2023-05-03T20:45:04.042Z,101388.19
2023-05-03T20:47:31.172Z,101390.75
2023-05-03T20:49:58.277Z,101404.09
2023-05-03T20:52:25.424Z,101401.50
2023-05-03T20:54:52.519Z,101388.03
2023-05-03T20:57:19.576Z,101387.16
2023-05-03T20:59:46.700Z,101370.06
2023-05-03T21:02:13.726Z,101364.25
2023-05-03T21:04:41.091Z,101376.84
2023-05-03T21:07:08.068Z,101374.34
2023-05-03T21:09:35.144Z,101369.84
2023-05-03T21:12:02.368Z,101368.28
2023-05-03T21:14:29.773Z,101370.59
2023-05-03T21:16:56.843Z,101361.84
2023-05-03T21:19:23.847Z,101374.13
2023-05-03T21:21:51.028Z,101368.03
2023-05-03T21:24:18.061Z,101367.97
2023-05-03T21:26:45.085Z,101367.13
2023-05-03T21:29:12.288Z,101380.13
2023-05-03T21:31:40.311Z,101375.69
2023-05-03T21:34:07.500Z,101371.19
2023-05-03T21:36:34.496Z,101378.28
2023-05-03T21:39:01.528Z,101379.28
2023-05-03T21:41:28.578Z,101376.38
2023-05-03T21:43:55.535Z,101372.31
2023-05-03T21:46:22.857Z,101377.59
2023-05-03T21:48:50.030Z,101374.72
2023-05-03T21:51:21.953Z,101379.34
2023-05-03T21:53:49.914Z,101386.34
2023-05-03T21:56:16.998Z,101382.97
2023-05-03T21:58:47.119Z,101375.59
2023-05-03T22:01:16.849Z,101366.00
2023-05-03T22:03:43.972Z,101383.19
2023-05-03T22:06:11.131Z,101381.50
2023-05-03T22:08:38.601Z,101374.28
2023-05-03T22:11:07.193Z,101363.97
2023-05-03T22:13:39.404Z,101366.78
2023-05-03T22:16:12.455Z,101356.94
2023-05-03T22:18:39.668Z,101341.22
2023-05-03T22:21:07.429Z,101346.25
2023-05-03T22:23:34.549Z,101346.84
2023-05-03T22:26:01.561Z,101326.91
2023-05-03T22:28:28.870Z,101304.91
2023-05-03T22:30:56.719Z,101286.28
2023-05-03T22:33:23.741Z,101313.78
2023-05-03T22:35:50.798Z,101334.00
2023-05-03T22:38:17.919Z,101339.75
2023-05-03T22:40:45.038Z,101340.38
2023-05-03T22:43:12.218Z,101347.31
2023-05-03T22:45:39.486Z,101346.81
2023-05-03T22:48:06.944Z,101382.94
2023-05-03T22:50:33.924Z,101390.75
2023-05-03T22:53:00.862Z,101411.00
2023-05-03T22:55:28.272Z,101422.22
2023-05-03T22:57:55.353Z,101412.97
2023-05-03T23:00:22.656Z,101411.22
2023-05-03T23:02:49.886Z,101426.53
2023-05-03T23:05:17.146Z,101423.00
2023-05-03T23:07:44.193Z,101422.94
2023-05-03T23:10:11.524Z,101424.03
2023-05-03T23:12:39.458Z,101416.66
2023-05-03T23:15:07.279Z,101420.75
2023-05-03T23:17:34.572Z,101407.72
2023-05-03T23:20:01.667Z,101407.31
2023-05-03T23:22:28.774Z,101395.09
2023-05-03T23:24:55.766Z,101376.78
2023-05-03T23:29:51.023Z,101361.56
2023-05-03T23:32:18.445Z,101362.09
2023-05-03T23:34:45.836Z,101357.13
2023-05-03T23:37:12.792Z,101347.59
2023-05-03T23:39:46.986Z,101339.00
2023-05-03T23:42:14.228Z,101341.59
2023-05-03T23:44:53.816Z,101317.06
2023-05-03T23:47:21.955Z,101284.69
2023-05-03T23:49:49.037Z,101276.75
2023-05-03T23:52:19.172Z,101284.72
2023-05-03T23:54:46.600Z,101286.13
2023-05-03T23:57:13.638Z,101284.53
2023-05-03T23:59:40.617Z,101264.34
